Formentera Direct — EAHQ — position and weather

sailwx.info

Track history (hours):
 
Tides and Currents Weather Stations Pressure Air Temp Water Temp Dewpoint Dewpoint Depression Visibility Wind Speed Wind Dir Waves Ship Positions

Formentera Direct

Last reported at 2017-Nov-01 01:59 UTC. Time now 2017-Nov-21 12:06 UTC.
Position N 38°55' E 001°26'.
Warning: this ship's position is 20 days out of date.

; draft 2.7 m.

Type: High speed craft. MMSI: 224101000.

Date/timePositionNaut miles runAvg speedWind from/ knotsBaromVisibWave heightAir tempDewpointWater temp
2017-Nov-01 01:59N 38°55' E 001°26'0 0.0
2017-Nov-01 01:30N 38°55' E 001°26'0 0.0
2017-Nov-01 01:00N 38°55' E 001°26'0 0.0
2017-Nov-01 00:29N 38°55' E 001°26'0 0.0
2017-Nov-01 00:00N 38°55' E 001°26'0 0.0
2017-Oct-31 23:30N 38°55' E 001°26'0 0.0
2017-Oct-31 22:58N 38°55' E 001°26'0 0.0
2017-Oct-31 22:28N 38°55' E 001°26'0 0.0
2017-Oct-31 21:59N 38°55' E 001°26'0 0.0
2017-Oct-31 21:30N 38°55' E 001°26'0 0.0
2017-Oct-31 21:00N 38°55' E 001°26'0 0.0
2017-Oct-31 20:29N 38°55' E 001°26'0 0.0
2017-Oct-31 19:58N 38°55' E 001°26'1 1.4
2017-Oct-31 19:30N 38°54' E 001°27'4 3.8
2017-Oct-31 18:21N 38°50' E 001°25'513.9
2017-Oct-31 18:00N 38°55' E 001°26'1 2.7
2017-Oct-31 17:30N 38°53' E 001°27'5 3.5
2017-Oct-31 15:58N 38°48' E 001°25'613.1
2017-Oct-31 15:28N 38°55' E 001°26'0 0.5
2017-Oct-31 15:00N 38°55' E 001°26'0 0.0
2017-Oct-31 14:28N 38°55' E 001°26'0 0.0
2017-Oct-31 14:00N 38°55' E 001°26'2 3.5
2017-Oct-31 13:29N 38°53' E 001°27'5 3.2
2017-Oct-31 11:58N 38°48' E 001°25'713.2
2017-Oct-31 11:28N 38°55' E 001°26'0 0.0
2017-Oct-31 10:59N 38°55' E 001°26'2 4.1
2017-Oct-31 10:29N 38°53' E 001°27'3 3.0
2017-Oct-31 09:24N 38°50' E 001°25'512.2
2017-Oct-31 08:59N 38°55' E 001°26'0 0.5
2017-Oct-31 08:30N 38°55' E 001°26'0 0.0
2017-Oct-31 07:59N 38°55' E 001°26'3 5.5
2017-Oct-31 07:30N 38°52' E 001°26'811.1
2017-Oct-31 06:46N 38°44' E 001°25'515.9
2017-Oct-31 06:26N 38°49' E 001°25'511.9
2017-Oct-31 05:59N 38°55' E 001°26'0 0.0
2017-Oct-31 05:30N 38°55' E 001°26'0 0.0
2017-Oct-31 04:59N 38°55' E 001°26'0 0.0
2017-Oct-31 04:30N 38°55' E 001°26'0 0.0
2017-Oct-31 03:58N 38°55' E 001°26'0 0.0
2017-Oct-31 03:29N 38°55' E 001°26'0 0.0
2017-Oct-31 02:59N 38°55' E 001°26'0 0.0
2017-Oct-31 02:29N 38°55' E 001°26'0 0.0
2017-Oct-31 02:00N 38°55' E 001°26'0 0.0
2017-Oct-31 01:29N 38°55' E 001°26'0 0.0
2017-Oct-31 01:00N 38°55' E 001°26'0 0.0
2017-Oct-31 00:28N 38°55' E 001°26'0 0.0
2017-Oct-31 00:00N 38°55' E 001°26'0 0.0
2017-Oct-30 23:30N 38°55' E 001°26'0 0.0
2017-Oct-30 23:00N 38°55' E 001°26'0 0.0
2017-Oct-30 22:30N 38°55' E 001°26'0 0.0
2017-Oct-30 21:59N 38°55' E 001°26'0 0.0
2017-Oct-30 21:30N 38°55' E 001°26'0 0.0
2017-Oct-30 20:59N 38°55' E 001°26'0 0.0
2017-Oct-30 20:30N 38°55' E 001°26'0 0.0
2017-Oct-30 19:59N 38°55' E 001°26'3 6.1
2017-Oct-30 19:30N 38°52' E 001°26'3 3.7
2017-Oct-30 18:34N 38°48' E 001°25'220.1
2017-Oct-30 18:27N 38°51' E 001°26'4 8.6
2017-Oct-30 18:00N 38°55' E 001°26'2 4.1
2017-Oct-30 17:26N 38°52' E 001°26'5 3.0
2017-Oct-30 15:57N 38°48' E 001°25'714.8
2017-Oct-30 15:30N 38°55' E 001°26'0 0.5
2017-Oct-30 15:00N 38°55' E 001°26'0 0.0
2017-Oct-30 14:00N 38°55' E 001°26'3 5.8
2017-Oct-30 13:30N 38°52' E 001°26'3 1.9
2017-Oct-30 11:54N 38°49' E 001°25'614.8
2017-Oct-30 11:30N 38°55' E 001°26'0 0.0
2017-Oct-30 10:59N 38°55' E 001°26'1 2.3
2017-Oct-30 10:30N 38°54' E 001°27'6 5.7
2017-Oct-30 09:27N 38°48' E 001°25'714.2
2017-Oct-30 08:58N 38°55' E 001°26'0 0.5
2017-Oct-30 08:28N 38°55' E 001°26'0 0.0
2017-Oct-30 07:54N 38°55' E 001°26'2 4.2
2017-Oct-30 07:30N 38°53' E 001°27'5 5.1
2017-Oct-30 06:26N 38°48' E 001°25'715.0
2017-Oct-30 05:59N 38°55' E 001°26'0 0.0
2017-Oct-30 05:29N 38°55' E 001°26'0 0.0
2017-Oct-30 05:00N 38°55' E 001°26'0 0.0
2017-Oct-30 04:29N 38°55' E 001°26'0 0.0
2017-Oct-30 04:00N 38°55' E 001°26'0 0.0
2017-Oct-30 03:30N 38°55' E 001°26'0 0.0
2017-Oct-30 03:00N 38°55' E 001°26'0 0.0
2017-Oct-30 02:29N 38°55' E 001°26'0 0.0
2017-Oct-30 01:58N 38°55' E 001°26'0 0.0
2017-Oct-30 01:28N 38°55' E 001°26'0 0.0
2017-Oct-30 00:59N 38°55' E 001°26'0 0.0
2017-Oct-30 00:30N 38°55' E 001°26'0 0.0
2017-Oct-29 23:59N 38°55' E 001°26'0 0.0
2017-Oct-29 23:29N 38°55' E 001°26'0 0.0
2017-Oct-29 23:00N 38°55' E 001°26'0 0.0
2017-Oct-29 22:30N 38°55' E 001°26'0 0.0
2017-Oct-29 21:59N 38°55' E 001°26'0 0.0
2017-Oct-29 21:30N 38°55' E 001°26'0 0.0
2017-Oct-29 20:59N 38°55' E 001°26'0 0.0
2017-Oct-29 20:29N 38°55' E 001°26'0 0.0
2017-Oct-29 19:59N 38°55' E 001°26'1 1.2
2017-Oct-29 19:30N 38°54' E 001°27'7 6.2
2017-Oct-29 18:26N 38°48' E 001°25'716.2
2017-Oct-29 18:00N 38°55' E 001°26'2 4.8
2017-Oct-29 17:30N 38°52' E 001°26'4 2.7
2017-Oct-29 15:55N 38°48' E 001°25'714.9
2017-Oct-29 15:29N 38°55' E 001°26'0 0.5
2017-Oct-29 14:58N 38°55' E 001°26'0 0.0
2017-Oct-29 14:30N 38°55' E 001°26'0 0.0
2017-Oct-29 14:00N 38°55' E 001°26'1 3.0
2017-Oct-29 13:30N 38°53' E 001°27'6 3.6
2017-Oct-29 11:58N 38°48' E 001°25'714.3
2017-Oct-29 11:29N 38°55' E 001°26'0 0.0
2017-Oct-29 10:59N 38°55' E 001°26'1 1.5
2017-Oct-29 10:30N 38°54' E 001°27'6 5.9
2017-Oct-29 09:26N 38°48' E 001°25'715.2
2017-Oct-29 09:00N 38°55' E 001°26'0 0.5
2017-Oct-29 08:30N 38°55' E 001°26'0 0.1
2017-Oct-29 08:00N 38°55' E 001°26'1 1.9
2017-Oct-29 07:29N 38°54' E 001°27'6 5.5
2017-Oct-29 06:25N 38°48' E 001°25'715.9
2017-Oct-29 06:00N 38°55' E 001°26'0 0.0
2017-Oct-29 05:30N 38°55' E 001°26'0 0.0
2017-Oct-29 05:00N 38°55' E 001°26'0 0.0
2017-Oct-29 04:30N 38°55' E 001°26'0 0.0
2017-Oct-29 03:59N 38°55' E 001°26'0 0.0
2017-Oct-28 19:00N 38°55' E 001°26'2 4.3
2017-Oct-28 18:30N 38°53' E 001°26'4 3.4
2017-Oct-28 17:24N 38°49' E 001°25'613.9
2017-Oct-28 16:59N 38°55' E 001°26'1 1.8
2017-Oct-28 16:30N 38°54' E 001°27'6 4.0
2017-Oct-28 14:57N 38°48' E 001°25'714.8
2017-Oct-28 14:29N 38°55' E 001°26'0 0.5
2017-Oct-28 13:59N 38°55' E 001°26'0 0.0
2017-Oct-28 13:30N 38°55' E 001°26'0 0.0
2017-Oct-28 12:59N 38°55' E 001°26'1 2.3
2017-Oct-28 12:29N 38°54' E 001°27'6 5.2
2017-Oct-28 11:21N 38°48' E 001°25'618.1
2017-Oct-28 11:00N 38°54' E 001°27'1 1.5
2017-Oct-28 10:29N 38°55' E 001°26'0 0.0
2017-Oct-28 10:00N 38°55' E 001°26'2 4.1
2017-Oct-28 09:30N 38°53' E 001°26'5 4.7
2017-Oct-28 08:31N 38°48' E 001°25'118.5
2017-Oct-28 08:28N 38°49' E 001°25'611.8
2017-Oct-28 07:59N 38°55' E 001°26'0 0.5
2017-Oct-28 07:30N 38°55' E 001°26'0 0.0
2017-Oct-28 07:00N 38°55' E 001°26'2 4.3
2017-Oct-28 06:29N 38°53' E 001°27'5 4.4
2017-Oct-28 05:27N 38°48' E 001°25'714.3
2017-Oct-28 04:59N 38°55' E 001°26'0 0.0
2017-Oct-28 04:30N 38°55' E 001°26'0 0.0
2017-Oct-28 03:59N 38°55' E 001°26'0 0.0
2017-Oct-28 03:30N 38°55' E 001°26'0 0.0
2017-Oct-28 03:00N 38°55' E 001°26'0 0.0
2017-Oct-28 02:28N 38°55' E 001°26'0 0.0
2017-Oct-28 02:00N 38°55' E 001°26'0 0.0
2017-Oct-28 01:30N 38°55' E 001°26'0 0.0
2017-Oct-28 01:00N 38°55' E 001°26'0 0.0
2017-Oct-28 00:30N 38°55' E 001°26'0 0.0
2017-Oct-28 00:00N 38°55' E 001°26'0 0.0
2017-Oct-27 23:30N 38°55' E 001°26'0 0.0
2017-Oct-27 22:59N 38°55' E 001°26'0 0.0
2017-Oct-27 22:30N 38°55' E 001°26'0 0.0
2017-Oct-27 21:59N 38°55' E 001°26'0 0.0
2017-Oct-27 21:30N 38°55' E 001°26'0 0.0
2017-Oct-27 20:58N 38°55' E 001°26'0 0.0
2017-Oct-27 20:30N 38°55' E 001°26'0 0.0
2017-Oct-27 20:00N 38°55' E 001°26'0 0.0
2017-Oct-27 19:30N 38°55' E 001°26'0 0.0
2017-Oct-27 18:58N 38°55' E 001°26'1 1.4
2017-Oct-27 18:30N 38°54' E 001°27'1012.0
2017-Oct-27 17:39N 38°44' E 001°25'318.1
2017-Oct-27 17:28N 38°47' E 001°25'716.2
2017-Oct-27 17:00N 38°55' E 001°26'2 3.0
2017-Oct-27 16:29N 38°53' E 001°27'917.3
2017-Oct-27 15:57N 38°44' E 001°25'0 0.1
2017-Oct-27 15:10N 38°44' E 001°25'317.1
2017-Oct-27 15:00N 38°47' E 001°25'815.5
2017-Oct-27 14:29N 38°55' E 001°26'0 0.5
2017-Oct-27 14:00N 38°55' E 001°26'0 0.1
2017-Oct-27 13:30N 38°55' E 001°26'0 0.0
2017-Oct-27 13:01N 38°55' E 001°26'2 4.9
2017-Oct-27 12:31N 38°52' E 001°26'4 2.5
2017-Oct-27 10:55N 38°48' E 001°25'615.5
2017-Oct-27 10:30N 38°55' E 001°26'0 0.0
2017-Oct-27 09:59N 38°55' E 001°26'1 1.5
2017-Oct-27 09:29N 38°54' E 001°27'6 5.8
2017-Oct-27 08:26N 38°48' E 001°25'715.0
2017-Oct-27 08:00N 38°55' E 001°26'0 0.5
2017-Oct-27 07:29N 38°55' E 001°26'0 0.0
2017-Oct-27 07:00N 38°55' E 001°26'1 2.0
2017-Oct-27 06:30N 38°54' E 001°27'5 4.9
2017-Oct-27 05:23N 38°48' E 001°25'616.8
2017-Oct-27 05:00N 38°55' E 001°26'0 0.1
2017-Oct-27 04:30N 38°55' E 001°26'0 0.0
2017-Oct-27 03:59N 38°55' E 001°26'0 0.0
2017-Oct-27 03:28N 38°55' E 001°26'0 0.0
2017-Oct-27 03:00N 38°55' E 001°26'0 0.0
2017-Oct-27 02:29N 38°55' E 001°26'0 0.0
2017-Oct-27 02:00N 38°55' E 001°26'0 0.0
2017-Oct-27 01:30N 38°55' E 001°26'0 0.0
2017-Oct-27 01:00N 38°55' E 001°26'0 0.0
2017-Oct-27 00:30N 38°55' E 001°26'0 0.0
2017-Oct-26 23:59N 38°55' E 001°26'0 0.0
2017-Oct-26 23:30N 38°55' E 001°26'0 0.0
2017-Oct-26 22:59N 38°55' E 001°26'0 0.0
2017-Oct-26 22:30N 38°55' E 001°26'0 0.0
2017-Oct-26 21:59N 38°55' E 001°26'0 0.0
2017-Oct-26 21:29N 38°55' E 001°26'0 0.0
2017-Oct-26 20:59N 38°55' E 001°26'0 0.0
2017-Oct-26 20:27N 38°55' E 001°26'0 0.0
2017-Oct-26 19:59N 38°55' E 001°26'0 0.0
2017-Oct-26 19:28N 38°55' E 001°26'0 0.0
2017-Oct-26 18:59N 38°55' E 001°26'1 1.7
2017-Oct-26 18:30N 38°54' E 001°27'6 5.9
2017-Oct-26 17:27N 38°48' E 001°25'713.4
2017-Oct-26 16:58N 38°55' E 001°26'2 4.1
2017-Oct-26 16:30N 38°53' E 001°27'4 2.5
2017-Oct-26 14:51N 38°49' E 001°25'615.2
2017-Oct-26 14:28N 38°55' E 001°26'0 0.5
2017-Oct-26 14:00N 38°55' E 001°26'0 0.0
2017-Oct-26 13:29N 38°55' E 001°26'0 0.0
2017-Oct-26 12:59N 38°55' E 001°26'1 2.4
2017-Oct-26 12:29N 38°54' E 001°27'6 3.5
2017-Oct-26 10:54N 38°48' E 001°25'715.8
2017-Oct-26 10:29N 38°55' E 001°26'0 0.0
2017-Oct-26 09:59N 38°55' E 001°26'3 5.5
2017-Oct-26 09:25N 38°52' E 001°26'4 4.1
2017-Oct-26 08:31N 38°48' E 001°25'017.4
2017-Oct-26 08:29N 38°48' E 001°25'612.8
2017-Oct-26 07:59N 38°55' E 001°26'0 0.5
2017-Oct-26 07:28N 38°55' E 001°26'0 0.0
2017-Oct-26 06:59N 38°55' E 001°26'1 2.0
2017-Oct-26 06:30N 38°54' E 001°27'6 5.8
2017-Oct-26 05:26N 38°48' E 001°25'715.1
2017-Oct-26 04:58N 38°55' E 001°26'0 0.0
2017-Oct-26 04:30N 38°55' E 001°26'0 0.0
2017-Oct-26 03:59N 38°55' E 001°26'0 0.0
2017-Oct-26 03:29N 38°55' E 001°26'0 0.0
2017-Oct-26 03:00N 38°55' E 001°26'0 0.0
2017-Oct-26 02:30N 38°55' E 001°26'0 0.0
2017-Oct-26 01:59N 38°55' E 001°26'0 0.0
2017-Oct-26 01:28N 38°55' E 001°26'0 0.0
2017-Oct-26 01:00N 38°55' E 001°26'0 0.0
2017-Oct-26 00:29N 38°55' E 001°26'0 0.0
2017-Oct-26 00:00N 38°55' E 001°26'0 0.0
2017-Oct-25 23:28N 38°55' E 001°26'0 0.0
2017-Oct-25 22:59N 38°55' E 001°26'0 0.0
2017-Oct-25 22:30N 38°55' E 001°26'0 0.0
2017-Oct-25 22:00N 38°55' E 001°26'0 0.0
2017-Oct-25 21:30N 38°55' E 001°26'0 0.0
2017-Oct-25 21:00N 38°55' E 001°26'0 0.0
2017-Oct-25 20:30N 38°55' E 001°26'0 0.0
2017-Oct-25 20:00N 38°55' E 001°26'0 0.0
2017-Oct-25 19:28N 38°55' E 001°26'0 0.0
2017-Oct-25 18:59N 38°55' E 001°26'6 3.7
2017-Oct-25 17:22N 38°49' E 001°25'616.0
2017-Oct-25 17:00N 38°55' E 001°26'1 2.0
2017-Oct-25 16:30N 38°54' E 001°27'7 5.4
2017-Oct-25 15:10N 38°47' E 001°25'419.6
2017-Oct-25 15:00N 38°50' E 001°26'4 8.8
2017-Oct-25 14:29N 38°55' E 001°26'0 0.5
2017-Oct-25 13:59N 38°55' E 001°26'0 0.0
2017-Oct-25 13:28N 38°55' E 001°26'0 0.0
2017-Oct-25 12:59N 38°55' E 001°26'1 2.8
2017-Oct-25 12:29N 38°53' E 001°27'6 3.6
2017-Oct-25 10:57N 38°48' E 001°25'714.8
2017-Oct-25 10:29N 38°55' E 001°26'0 0.0
2017-Oct-25 09:58N 38°55' E 001°26'1 1.6
2017-Oct-25 09:30N 38°54' E 001°27'6 5.3
2017-Oct-25 08:25N 38°49' E 001°25'614.5
2017-Oct-25 08:00N 38°55' E 001°26'0 0.5
2017-Oct-25 07:30N 38°55' E 001°26'0 0.0
2017-Oct-25 07:00N 38°55' E 001°26'1 2.4
2017-Oct-25 06:30N 38°54' E 001°27'6 5.8
2017-Oct-25 05:30N 38°48' E 001°25'712.8
2017-Oct-25 04:59N 38°55' E 001°26'0 0.0
2017-Oct-25 04:29N 38°55' E 001°26'0 0.0
2017-Oct-25 03:59N 38°55' E 001°26'0 0.0
2017-Oct-25 03:28N 38°55' E 001°26'0 0.0
2017-Oct-25 02:58N 38°55' E 001°26'0 0.0
2017-Oct-25 02:29N 38°55' E 001°26'0 0.0
2017-Oct-25 02:00N 38°55' E 001°26'0 0.0
2017-Oct-25 01:30N 38°55' E 001°26'0 0.0
2017-Oct-25 01:00N 38°55' E 001°26'0 0.0
2017-Oct-25 00:30N 38°55' E 001°26'0 0.0
2017-Oct-24 23:58N 38°55' E 001°26'0 0.0
2017-Oct-24 23:30N 38°55' E 001°26'0 0.0
2017-Oct-24 22:59N 38°55' E 001°26'0 0.0
2017-Oct-24 22:30N 38°55' E 001°26'0 0.0
2017-Oct-24 21:59N 38°55' E 001°26'0 0.0
2017-Oct-24 21:29N 38°55' E 001°26'0 0.0
2017-Oct-24 20:58N 38°55' E 001°26'0 0.0
2017-Oct-24 20:28N 38°55' E 001°26'0 0.0
2017-Oct-24 19:59N 38°55' E 001°26'0 0.0
2017-Oct-24 19:29N 38°55' E 001°26'0 0.0
2017-Oct-24 18:59N 38°55' E 001°26'1 1.3
2017-Oct-24 18:30N 38°54' E 001°27'6 5.4
2017-Oct-24 17:24N 38°49' E 001°25'614.7
2017-Oct-24 16:59N 38°55' E 001°26'1 2.3
2017-Oct-24 16:29N 38°54' E 001°27'6 4.0
2017-Oct-24 14:57N 38°48' E 001°25'715.4
2017-Oct-24 14:29N 38°55' E 001°26'0 0.5
2017-Oct-24 13:59N 38°55' E 001°26'0 0.0
2017-Oct-24 13:30N 38°55' E 001°26'0 0.0
2017-Oct-24 12:59N 38°55' E 001°26'1 1.5
2017-Oct-24 12:30N 38°54' E 001°27'6 4.1
2017-Oct-24 10:59N 38°48' E 001°25'713.4
2017-Oct-24 10:29N 38°55' E 001°26'0 0.0
2017-Oct-24 10:00N 38°55' E 001°26'1 1.8
2017-Oct-24 09:30N 38°54' E 001°27'5 5.0
2017-Oct-24 08:24N 38°49' E 001°25'615.3
2017-Oct-24 08:00N 38°55' E 001°26'0 0.5
2017-Oct-24 07:30N 38°55' E 001°26'0 0.0
2017-Oct-24 07:00N 38°55' E 001°26'1 2.3
2017-Oct-24 06:30N 38°54' E 001°27'6 5.5
2017-Oct-24 05:26N 38°48' E 001°25'715.1
2017-Oct-24 04:59N 38°55' E 001°26'0 0.0
2017-Oct-24 04:30N 38°55' E 001°26'0 0.0
2017-Oct-24 04:00N 38°55' E 001°26'0 0.0
2017-Oct-24 03:29N 38°55' E 001°26'0 0.0
2017-Oct-24 03:00N 38°55' E 001°26'0 0.0
2017-Oct-24 02:30N 38°55' E 001°26'0 0.0
2017-Oct-24 01:59N 38°55' E 001°26'0 0.0
2017-Oct-24 01:28N 38°55' E 001°26'0 0.0
2017-Oct-24 00:59N 38°55' E 001°26'0 0.0
2017-Oct-24 00:30N 38°55' E 001°26'0 0.0
2017-Oct-24 00:00N 38°55' E 001°26'0 0.0
2017-Oct-23 23:29N 38°55' E 001°26'0 0.0
2017-Oct-23 23:00N 38°55' E 001°26'0 0.0
2017-Oct-23 22:30N 38°55' E 001°26'0 0.0
2017-Oct-23 21:59N 38°55' E 001°26'0 0.0
2017-Oct-23 21:30N 38°55' E 001°26'0 0.0
2017-Oct-23 21:00N 38°55' E 001°26'0 0.0
2017-Oct-23 20:29N 38°55' E 001°26'0 0.0
2017-Oct-23 20:00N 38°55' E 001°26'0 0.0
2017-Oct-23 19:29N 38°55' E 001°26'0 0.0
2017-Oct-23 18:59N 38°55' E 001°26'1 1.2
2017-Oct-23 18:30N 38°54' E 001°27'5 4.8
2017-Oct-23 17:23N 38°49' E 001°25'613.9
2017-Oct-23 16:58N 38°55' E 001°26'1 1.6
2017-Oct-23 16:30N 38°54' E 001°27'4 2.4
2017-Oct-23 14:48N 38°50' E 001°25'414.9
2017-Oct-23 14:30N 38°55' E 001°26'0 0.4
2017-Oct-23 13:57N 38°55' E 001°26'0 0.0
2017-Oct-23 13:29N 38°55' E 001°26'0 0.0
2017-Oct-23 13:00N 38°55' E 001°26'5 7.5
2017-Oct-23 12:22N 38°50' E 001°25'0 0.3
2017-Oct-23 10:49N 38°51' E 001°25'412.8
2017-Oct-23 10:29N 38°55' E 001°26'0 0.0
2017-Oct-23 10:00N 38°55' E 001°26'3 5.3
2017-Oct-23 09:30N 38°52' E 001°26'3 2.7
2017-Oct-23 08:23N 38°49' E 001°25'614.0
2017-Oct-23 07:59N 38°55' E 001°26'0 0.4
2017-Oct-23 07:28N 38°55' E 001°26'0 0.0
2017-Oct-23 06:59N 38°55' E 001°26'1 1.8
2017-Oct-23 06:30N 38°54' E 001°27'5 4.7
2017-Oct-23 05:23N 38°49' E 001°25'615.0
2017-Oct-23 04:59N 38°55' E 001°26'0 0.0
2017-Oct-23 04:29N 38°55' E 001°26'0 0.0
2017-Oct-23 04:00N 38°55' E 001°26'0 0.0
2017-Oct-23 03:28N 38°55' E 001°26'0 0.0
2017-Oct-23 03:00N 38°55' E 001°26'0 0.0
2017-Oct-23 02:30N 38°55' E 001°26'0 0.0
2017-Oct-23 01:59N 38°55' E 001°26'0 0.0
2017-Oct-23 01:30N 38°55' E 001°26'0 0.0
2017-Oct-23 00:58N 38°55' E 001°26'0 0.0
2017-Oct-23 00:30N 38°55' E 001°26'0 0.0
2017-Oct-22 23:59N 38°55' E 001°26'0 0.0
2017-Oct-22 23:28N 38°55' E 001°26'0 0.0
2017-Oct-22 22:59N 38°55' E 001°26'0 0.0
2017-Oct-22 22:30N 38°55' E 001°26'0 0.0
2017-Oct-22 21:59N 38°55' E 001°26'0 0.0
2017-Oct-22 21:30N 38°55' E 001°26'0 0.0
2017-Oct-22 20:59N 38°55' E 001°26'0 0.0
2017-Oct-22 20:29N 38°55' E 001°26'0 0.0
2017-Oct-22 20:00N 38°55' E 001°26'0 0.0
2017-Oct-22 19:29N 38°55' E 001°26'0 0.0
2017-Oct-22 18:59N 38°55' E 001°26'1 1.7
2017-Oct-22 18:30N 38°54' E 001°27'5 4.5
2017-Oct-22 17:22N 38°49' E 001°25'614.8
2017-Oct-22 17:00N 38°55' E 001°26'1 2.1
2017-Oct-22 16:30N 38°54' E 001°27'6 3.7
2017-Oct-22 14:56N 38°48' E 001°25'714.9
2017-Oct-22 14:29N 38°55' E 001°26'0 0.5
2017-Oct-22 13:57N 38°55' E 001°26'0 0.0
2017-Oct-22 13:29N 38°55' E 001°26'0 0.0
2017-Oct-22 12:59N 38°55' E 001°26'1 2.1
2017-Oct-22 12:30N 38°54' E 001°27'4 2.6
2017-Oct-22 10:53N 38°50' E 001°25'512.7
2017-Oct-22 10:29N 38°55' E 001°26'0 0.0
2017-Oct-22 10:00N 38°55' E 001°26'1 2.2
2017-Oct-22 09:29N 38°54' E 001°27'3 2.6
2017-Oct-22 08:17N 38°51' E 001°26'410.7
2017-Oct-22 07:55N 38°55' E 001°26'0 0.6
2017-Oct-22 07:29N 38°55' E 001°26'0 0.0
2017-Oct-22 06:57N 38°55' E 001°26'1 3.0
2017-Oct-22 06:30N 38°53' E 001°27'5 4.1
2017-Oct-22 05:22N 38°49' E 001°25'615.4
2017-Oct-22 05:00N 38°55' E 001°26'0 0.0
2017-Oct-22 04:28N 38°55' E 001°26'0 0.0
2017-Oct-22 04:00N 38°55' E 001°26'0 0.0
2017-Oct-22 03:29N 38°55' E 001°26'0 0.0
2017-Oct-22 02:59N 38°55' E 001°26'0 0.0
2017-Oct-22 02:30N 38°55' E 001°26'  
Track history (hours):
 
Tides and Currents Weather Stations Pressure Air Temp Water Temp Dewpoint Dewpoint Depression Visibility Wind Speed Wind Dir Waves Ship Positions

Formentera Direct

Last reported at 2017-Nov-01 01:59 UTC. Time now 2017-Nov-21 12:06 UTC.
Position N 38°55' E 001°26'.
Warning: this ship's position is 20 days out of date.

; draft 2.7 m.

Type: High speed craft. MMSI: 224101000.

Date/timePositionNaut miles runAvg speedWind from/ knotsBaromVisibWave heightAir tempDewpointWater temp
2017-Nov-01 01:59N 38°55' E 001°26'0 0.0
2017-Nov-01 01:30N 38°55' E 001°26'0 0.0
2017-Nov-01 01:00N 38°55' E 001°26'0 0.0
2017-Nov-01 00:29N 38°55' E 001°26'0 0.0
2017-Nov-01 00:00N 38°55' E 001°26'0 0.0
2017-Oct-31 23:30N 38°55' E 001°26'0 0.0
2017-Oct-31 22:58N 38°55' E 001°26'0 0.0
2017-Oct-31 22:28N 38°55' E 001°26'0 0.0
2017-Oct-31 21:59N 38°55' E 001°26'0 0.0
2017-Oct-31 21:30N 38°55' E 001°26'0 0.0
2017-Oct-31 21:00N 38°55' E 001°26'0 0.0
2017-Oct-31 20:29N 38°55' E 001°26'0 0.0
2017-Oct-31 19:58N 38°55' E 001°26'1 1.4
2017-Oct-31 19:30N 38°54' E 001°27'4 3.8
2017-Oct-31 18:21N 38°50' E 001°25'513.9
2017-Oct-31 18:00N 38°55' E 001°26'1 2.7
2017-Oct-31 17:30N 38°53' E 001°27'5 3.5
2017-Oct-31 15:58N 38°48' E 001°25'613.1
2017-Oct-31 15:28N 38°55' E 001°26'0 0.5
2017-Oct-31 15:00N 38°55' E 001°26'0 0.0
2017-Oct-31 14:28N 38°55' E 001°26'0 0.0
2017-Oct-31 14:00N 38°55' E 001°26'2 3.5
2017-Oct-31 13:29N 38°53' E 001°27'5 3.2
2017-Oct-31 11:58N 38°48' E 001°25'713.2
2017-Oct-31 11:28N 38°55' E 001°26'0 0.0
2017-Oct-31 10:59N 38°55' E 001°26'2 4.1
2017-Oct-31 10:29N 38°53' E 001°27'3 3.0
2017-Oct-31 09:24N 38°50' E 001°25'512.2
2017-Oct-31 08:59N 38°55' E 001°26'0 0.5
2017-Oct-31 08:30N 38°55' E 001°26'0 0.0
2017-Oct-31 07:59N 38°55' E 001°26'3 5.5
2017-Oct-31 07:30N 38°52' E 001°26'811.1
2017-Oct-31 06:46N 38°44' E 001°25'515.9
2017-Oct-31 06:26N 38°49' E 001°25'511.9
2017-Oct-31 05:59N 38°55' E 001°26'0 0.0
2017-Oct-31 05:30N 38°55' E 001°26'0 0.0
2017-Oct-31 04:59N 38°55' E 001°26'0 0.0
2017-Oct-31 04:30N 38°55' E 001°26'0 0.0
2017-Oct-31 03:58N 38°55' E 001°26'0 0.0
2017-Oct-31 03:29N 38°55' E 001°26'0 0.0
2017-Oct-31 02:59N 38°55' E 001°26'0 0.0
2017-Oct-31 02:29N 38°55' E 001°26'0 0.0
2017-Oct-31 02:00N 38°55' E 001°26'0 0.0
2017-Oct-31 01:29N 38°55' E 001°26'0 0.0
2017-Oct-31 01:00N 38°55' E 001°26'0 0.0
2017-Oct-31 00:28N 38°55' E 001°26'0 0.0
2017-Oct-31 00:00N 38°55' E 001°26'0 0.0
2017-Oct-30 23:30N 38°55' E 001°26'0 0.0
2017-Oct-30 23:00N 38°55' E 001°26'0 0.0
2017-Oct-30 22:30N 38°55' E 001°26'0 0.0
2017-Oct-30 21:59N 38°55' E 001°26'0 0.0
2017-Oct-30 21:30N 38°55' E 001°26'0 0.0
2017-Oct-30 20:59N 38°55' E 001°26'0 0.0
2017-Oct-30 20:30N 38°55' E 001°26'0 0.0
2017-Oct-30 19:59N 38°55' E 001°26'3 6.1
2017-Oct-30 19:30N 38°52' E 001°26'3 3.7
2017-Oct-30 18:34N 38°48' E 001°25'220.1
2017-Oct-30 18:27N 38°51' E 001°26'4 8.6
2017-Oct-30 18:00N 38°55' E 001°26'2 4.1
2017-Oct-30 17:26N 38°52' E 001°26'5 3.0
2017-Oct-30 15:57N 38°48' E 001°25'714.8
2017-Oct-30 15:30N 38°55' E 001°26'0 0.5
2017-Oct-30 15:00N 38°55' E 001°26'0 0.0
2017-Oct-30 14:00N 38°55' E 001°26'3 5.8
2017-Oct-30 13:30N 38°52' E 001°26'3 1.9
2017-Oct-30 11:54N 38°49' E 001°25'614.8
2017-Oct-30 11:30N 38°55' E 001°26'0 0.0
2017-Oct-30 10:59N 38°55' E 001°26'1 2.3
2017-Oct-30 10:30N 38°54' E 001°27'6 5.7
2017-Oct-30 09:27N 38°48' E 001°25'714.2
2017-Oct-30 08:58N 38°55' E 001°26'0 0.5
2017-Oct-30 08:28N 38°55' E 001°26'0 0.0
2017-Oct-30 07:54N 38°55' E 001°26'2 4.2
2017-Oct-30 07:30N 38°53' E 001°27'5 5.1
2017-Oct-30 06:26N 38°48' E 001°25'715.0
2017-Oct-30 05:59N 38°55' E 001°26'0 0.0
2017-Oct-30 05:29N 38°55' E 001°26'0 0.0
2017-Oct-30 05:00N 38°55' E 001°26'0 0.0
2017-Oct-30 04:29N 38°55' E 001°26'0 0.0
2017-Oct-30 04:00N 38°55' E 001°26'0 0.0
2017-Oct-30 03:30N 38°55' E 001°26'0 0.0
2017-Oct-30 03:00N 38°55' E 001°26'0 0.0
2017-Oct-30 02:29N 38°55' E 001°26'0 0.0
2017-Oct-30 01:58N 38°55' E 001°26'0 0.0
2017-Oct-30 01:28N 38°55' E 001°26'0 0.0
2017-Oct-30 00:59N 38°55' E 001°26'0 0.0
2017-Oct-30 00:30N 38°55' E 001°26'0 0.0
2017-Oct-29 23:59N 38°55' E 001°26'0 0.0
2017-Oct-29 23:29N 38°55' E 001°26'0 0.0
2017-Oct-29 23:00N 38°55' E 001°26'0 0.0
2017-Oct-29 22:30N 38°55' E 001°26'0 0.0
2017-Oct-29 21:59N 38°55' E 001°26'0 0.0
2017-Oct-29 21:30N 38°55' E 001°26'0 0.0
2017-Oct-29 20:59N 38°55' E 001°26'0 0.0
2017-Oct-29 20:29N 38°55' E 001°26'0 0.0
2017-Oct-29 19:59N 38°55' E 001°26'1 1.2
2017-Oct-29 19:30N 38°54' E 001°27'7 6.2
2017-Oct-29 18:26N 38°48' E 001°25'716.2
2017-Oct-29 18:00N 38°55' E 001°26'2 4.8
2017-Oct-29 17:30N 38°52' E 001°26'4 2.7
2017-Oct-29 15:55N 38°48' E 001°25'714.9
2017-Oct-29 15:29N 38°55' E 001°26'0 0.5
2017-Oct-29 14:58N 38°55' E 001°26'0 0.0
2017-Oct-29 14:30N 38°55' E 001°26'0 0.0
2017-Oct-29 14:00N 38°55' E 001°26'1 3.0
2017-Oct-29 13:30N 38°53' E 001°27'6 3.6
2017-Oct-29 11:58N 38°48' E 001°25'714.3
2017-Oct-29 11:29N 38°55' E 001°26'0 0.0
2017-Oct-29 10:59N 38°55' E 001°26'1 1.5
2017-Oct-29 10:30N 38°54' E 001°27'6 5.9
2017-Oct-29 09:26N 38°48' E 001°25'715.2
2017-Oct-29 09:00N 38°55' E 001°26'0 0.5
2017-Oct-29 08:30N 38°55' E 001°26'0 0.1
2017-Oct-29 08:00N 38°55' E 001°26'1 1.9
2017-Oct-29 07:29N 38°54' E 001°27'6 5.5
2017-Oct-29 06:25N 38°48' E 001°25'715.9
2017-Oct-29 06:00N 38°55' E 001°26'0 0.0
2017-Oct-29 05:30N 38°55' E 001°26'0 0.0
2017-Oct-29 05:00N 38°55' E 001°26'0 0.0
2017-Oct-29 04:30N 38°55' E 001°26'0 0.0
2017-Oct-29 03:59N 38°55' E 001°26'0 0.0
2017-Oct-28 19:00N 38°55' E 001°26'2 4.3
2017-Oct-28 18:30N 38°53' E 001°26'4 3.4
2017-Oct-28 17:24N 38°49' E 001°25'613.9
2017-Oct-28 16:59N 38°55' E 001°26'1 1.8
2017-Oct-28 16:30N 38°54' E 001°27'6 4.0
2017-Oct-28 14:57N 38°48' E 001°25'714.8
2017-Oct-28 14:29N 38°55' E 001°26'0 0.5
2017-Oct-28 13:59N 38°55' E 001°26'0 0.0
2017-Oct-28 13:30N 38°55' E 001°26'0 0.0
2017-Oct-28 12:59N 38°55' E 001°26'1 2.3
2017-Oct-28 12:29N 38°54' E 001°27'6 5.2
2017-Oct-28 11:21N 38°48' E 001°25'618.1
2017-Oct-28 11:00N 38°54' E 001°27'1 1.5
2017-Oct-28 10:29N 38°55' E 001°26'0 0.0
2017-Oct-28 10:00N 38°55' E 001°26'2 4.1
2017-Oct-28 09:30N 38°53' E 001°26'5 4.7
2017-Oct-28 08:31N 38°48' E 001°25'118.5
2017-Oct-28 08:28N 38°49' E 001°25'611.8
2017-Oct-28 07:59N 38°55' E 001°26'0 0.5
2017-Oct-28 07:30N 38°55' E 001°26'0 0.0
2017-Oct-28 07:00N 38°55' E 001°26'2 4.3
2017-Oct-28 06:29N 38°53' E 001°27'5 4.4
2017-Oct-28 05:27N 38°48' E 001°25'714.3
2017-Oct-28 04:59N 38°55' E 001°26'0 0.0
2017-Oct-28 04:30N 38°55' E 001°26'0 0.0
2017-Oct-28 03:59N 38°55' E 001°26'0 0.0
2017-Oct-28 03:30N 38°55' E 001°26'0 0.0
2017-Oct-28 03:00N 38°55' E 001°26'0 0.0
2017-Oct-28 02:28N 38°55' E 001°26'0 0.0
2017-Oct-28 02:00N 38°55' E 001°26'0 0.0
2017-Oct-28 01:30N 38°55' E 001°26'0 0.0
2017-Oct-28 01:00N 38°55' E 001°26'0 0.0
2017-Oct-28 00:30N 38°55' E 001°26'0 0.0
2017-Oct-28 00:00N 38°55' E 001°26'0 0.0
2017-Oct-27 23:30N 38°55' E 001°26'0 0.0
2017-Oct-27 22:59N 38°55' E 001°26'0 0.0
2017-Oct-27 22:30N 38°55' E 001°26'0 0.0
2017-Oct-27 21:59N 38°55' E 001°26'0 0.0
2017-Oct-27 21:30N 38°55' E 001°26'0 0.0
2017-Oct-27 20:58N 38°55' E 001°26'0 0.0
2017-Oct-27 20:30N 38°55' E 001°26'0 0.0
2017-Oct-27 20:00N 38°55' E 001°26'0 0.0
2017-Oct-27 19:30N 38°55' E 001°26'0 0.0
2017-Oct-27 18:58N 38°55' E 001°26'1 1.4
2017-Oct-27 18:30N 38°54' E 001°27'1012.0
2017-Oct-27 17:39N 38°44' E 001°25'318.1
2017-Oct-27 17:28N 38°47' E 001°25'716.2
2017-Oct-27 17:00N 38°55' E 001°26'2 3.0
2017-Oct-27 16:29N 38°53' E 001°27'917.3
2017-Oct-27 15:57N 38°44' E 001°25'0 0.1
2017-Oct-27 15:10N 38°44' E 001°25'317.1
2017-Oct-27 15:00N 38°47' E 001°25'815.5
2017-Oct-27 14:29N 38°55' E 001°26'0 0.5
2017-Oct-27 14:00N 38°55' E 001°26'0 0.1
2017-Oct-27 13:30N 38°55' E 001°26'0 0.0
2017-Oct-27 13:01N 38°55' E 001°26'2 4.9
2017-Oct-27 12:31N 38°52' E 001°26'4 2.5
2017-Oct-27 10:55N 38°48' E 001°25'615.5
2017-Oct-27 10:30N 38°55' E 001°26'0 0.0
2017-Oct-27 09:59N 38°55' E 001°26'1 1.5
2017-Oct-27 09:29N 38°54' E 001°27'6 5.8
2017-Oct-27 08:26N 38°48' E 001°25'715.0
2017-Oct-27 08:00N 38°55' E 001°26'0 0.5
2017-Oct-27 07:29N 38°55' E 001°26'0 0.0
2017-Oct-27 07:00N 38°55' E 001°26'1 2.0
2017-Oct-27 06:30N 38°54' E 001°27'5 4.9
2017-Oct-27 05:23N 38°48' E 001°25'616.8
2017-Oct-27 05:00N 38°55' E 001°26'0 0.1
2017-Oct-27 04:30N 38°55' E 001°26'0 0.0
2017-Oct-27 03:59N 38°55' E 001°26'0 0.0
2017-Oct-27 03:28N 38°55' E 001°26'0 0.0
2017-Oct-27 03:00N 38°55' E 001°26'0 0.0
2017-Oct-27 02:29N 38°55' E 001°26'0 0.0
2017-Oct-27 02:00N 38°55' E 001°26'0 0.0
2017-Oct-27 01:30N 38°55' E 001°26'0 0.0
2017-Oct-27 01:00N 38°55' E 001°26'0 0.0
2017-Oct-27 00:30N 38°55' E 001°26'0 0.0
2017-Oct-26 23:59N 38°55' E 001°26'0 0.0
2017-Oct-26 23:30N 38°55' E 001°26'0 0.0
2017-Oct-26 22:59N 38°55' E 001°26'0 0.0
2017-Oct-26 22:30N 38°55' E 001°26'0 0.0
2017-Oct-26 21:59N 38°55' E 001°26'0 0.0
2017-Oct-26 21:29N 38°55' E 001°26'0 0.0
2017-Oct-26 20:59N 38°55' E 001°26'0 0.0
2017-Oct-26 20:27N 38°55' E 001°26'0 0.0
2017-Oct-26 19:59N 38°55' E 001°26'0 0.0
2017-Oct-26 19:28N 38°55' E 001°26'0 0.0
2017-Oct-26 18:59N 38°55' E 001°26'1 1.7
2017-Oct-26 18:30N 38°54' E 001°27'6 5.9
2017-Oct-26 17:27N 38°48' E 001°25'713.4
2017-Oct-26 16:58N 38°55' E 001°26'2 4.1
2017-Oct-26 16:30N 38°53' E 001°27'4 2.5
2017-Oct-26 14:51N 38°49' E 001°25'615.2
2017-Oct-26 14:28N 38°55' E 001°26'0 0.5
2017-Oct-26 14:00N 38°55' E 001°26'0 0.0
2017-Oct-26 13:29N 38°55' E 001°26'0 0.0
2017-Oct-26 12:59N 38°55' E 001°26'1 2.4
2017-Oct-26 12:29N 38°54' E 001°27'6 3.5
2017-Oct-26 10:54N 38°48' E 001°25'715.8
2017-Oct-26 10:29N 38°55' E 001°26'0 0.0
2017-Oct-26 09:59N 38°55' E 001°26'3 5.5
2017-Oct-26 09:25N 38°52' E 001°26'4 4.1
2017-Oct-26 08:31N 38°48' E 001°25'017.4
2017-Oct-26 08:29N 38°48' E 001°25'612.8
2017-Oct-26 07:59N 38°55' E 001°26'0 0.5
2017-Oct-26 07:28N 38°55' E 001°26'0 0.0
2017-Oct-26 06:59N 38°55' E 001°26'1 2.0
2017-Oct-26 06:30N 38°54' E 001°27'6 5.8
2017-Oct-26 05:26N 38°48' E 001°25'715.1
2017-Oct-26 04:58N 38°55' E 001°26'0 0.0
2017-Oct-26 04:30N 38°55' E 001°26'0 0.0
2017-Oct-26 03:59N 38°55' E 001°26'0 0.0
2017-Oct-26 03:29N 38°55' E 001°26'0 0.0
2017-Oct-26 03:00N 38°55' E 001°26'0 0.0
2017-Oct-26 02:30N 38°55' E 001°26'0 0.0
2017-Oct-26 01:59N 38°55' E 001°26'0 0.0
2017-Oct-26 01:28N 38°55' E 001°26'0 0.0
2017-Oct-26 01:00N 38°55' E 001°26'0 0.0
2017-Oct-26 00:29N 38°55' E 001°26'0 0.0
2017-Oct-26 00:00N 38°55' E 001°26'0 0.0
2017-Oct-25 23:28N 38°55' E 001°26'0 0.0
2017-Oct-25 22:59N 38°55' E 001°26'0 0.0
2017-Oct-25 22:30N 38°55' E 001°26'0 0.0
2017-Oct-25 22:00N 38°55' E 001°26'0 0.0
2017-Oct-25 21:30N 38°55' E 001°26'0 0.0
2017-Oct-25 21:00N 38°55' E 001°26'0 0.0
2017-Oct-25 20:30N 38°55' E 001°26'0 0.0
2017-Oct-25 20:00N 38°55' E 001°26'0 0.0
2017-Oct-25 19:28N 38°55' E 001°26'0 0.0
2017-Oct-25 18:59N 38°55' E 001°26'6 3.7
2017-Oct-25 17:22N 38°49' E 001°25'616.0
2017-Oct-25 17:00N 38°55' E 001°26'1 2.0
2017-Oct-25 16:30N 38°54' E 001°27'7 5.4
2017-Oct-25 15:10N 38°47' E 001°25'419.6
2017-Oct-25 15:00N 38°50' E 001°26'4 8.8
2017-Oct-25 14:29N 38°55' E 001°26'0 0.5
2017-Oct-25 13:59N 38°55' E 001°26'0 0.0
2017-Oct-25 13:28N 38°55' E 001°26'0 0.0
2017-Oct-25 12:59N 38°55' E 001°26'1 2.8
2017-Oct-25 12:29N 38°53' E 001°27'6 3.6
2017-Oct-25 10:57N 38°48' E 001°25'714.8
2017-Oct-25 10:29N 38°55' E 001°26'0 0.0
2017-Oct-25 09:58N 38°55' E 001°26'1 1.6
2017-Oct-25 09:30N 38°54' E 001°27'6 5.3
2017-Oct-25 08:25N 38°49' E 001°25'614.5
2017-Oct-25 08:00N 38°55' E 001°26'0 0.5
2017-Oct-25 07:30N 38°55' E 001°26'0 0.0
2017-Oct-25 07:00N 38°55' E 001°26'1 2.4
2017-Oct-25 06:30N 38°54' E 001°27'6 5.8
2017-Oct-25 05:30N 38°48' E 001°25'712.8
2017-Oct-25 04:59N 38°55' E 001°26'0 0.0
2017-Oct-25 04:29N 38°55' E 001°26'0 0.0
2017-Oct-25 03:59N 38°55' E 001°26'0 0.0
2017-Oct-25 03:28N 38°55' E 001°26'0 0.0
2017-Oct-25 02:58N 38°55' E 001°26'0 0.0
2017-Oct-25 02:29N 38°55' E 001°26'0 0.0
2017-Oct-25 02:00N 38°55' E 001°26'0 0.0
2017-Oct-25 01:30N 38°55' E 001°26'0 0.0
2017-Oct-25 01:00N 38°55' E 001°26'0 0.0
2017-Oct-25 00:30N 38°55' E 001°26'0 0.0
2017-Oct-24 23:58N 38°55' E 001°26'0 0.0
2017-Oct-24 23:30N 38°55' E 001°26'0 0.0
2017-Oct-24 22:59N 38°55' E 001°26'0 0.0
2017-Oct-24 22:30N 38°55' E 001°26'0 0.0
2017-Oct-24 21:59N 38°55' E 001°26'0 0.0
2017-Oct-24 21:29N 38°55' E 001°26'0 0.0
2017-Oct-24 20:58N 38°55' E 001°26'0 0.0
2017-Oct-24 20:28N 38°55' E 001°26'0 0.0
2017-Oct-24 19:59N 38°55' E 001°26'0 0.0
2017-Oct-24 19:29N 38°55' E 001°26'0 0.0
2017-Oct-24 18:59N 38°55' E 001°26'1 1.3
2017-Oct-24 18:30N 38°54' E 001°27'6 5.4
2017-Oct-24 17:24N 38°49' E 001°25'614.7
2017-Oct-24 16:59N 38°55' E 001°26'1 2.3
2017-Oct-24 16:29N 38°54' E 001°27'6 4.0
2017-Oct-24 14:57N 38°48' E 001°25'715.4
2017-Oct-24 14:29N 38°55' E 001°26'0 0.5
2017-Oct-24 13:59N 38°55' E 001°26'0 0.0
2017-Oct-24 13:30N 38°55' E 001°26'0 0.0
2017-Oct-24 12:59N 38°55' E 001°26'1 1.5
2017-Oct-24 12:30N 38°54' E 001°27'6 4.1
2017-Oct-24 10:59N 38°48' E 001°25'713.4
2017-Oct-24 10:29N 38°55' E 001°26'0 0.0
2017-Oct-24 10:00N 38°55' E 001°26'1 1.8
2017-Oct-24 09:30N 38°54' E 001°27'5 5.0
2017-Oct-24 08:24N 38°49' E 001°25'615.3
2017-Oct-24 08:00N 38°55' E 001°26'0 0.5
2017-Oct-24 07:30N 38°55' E 001°26'0 0.0
2017-Oct-24 07:00N 38°55' E 001°26'1 2.3
2017-Oct-24 06:30N 38°54' E 001°27'6 5.5
2017-Oct-24 05:26N 38°48' E 001°25'715.1
2017-Oct-24 04:59N 38°55' E 001°26'0 0.0
2017-Oct-24 04:30N 38°55' E 001°26'0 0.0
2017-Oct-24 04:00N 38°55' E 001°26'0 0.0
2017-Oct-24 03:29N 38°55' E 001°26'0 0.0
2017-Oct-24 03:00N 38°55' E 001°26'0 0.0
2017-Oct-24 02:30N 38°55' E 001°26'0 0.0
2017-Oct-24 01:59N 38°55' E 001°26'0 0.0
2017-Oct-24 01:28N 38°55' E 001°26'0 0.0
2017-Oct-24 00:59N 38°55' E 001°26'0 0.0
2017-Oct-24 00:30N 38°55' E 001°26'0 0.0
2017-Oct-24 00:00N 38°55' E 001°26'0 0.0
2017-Oct-23 23:29N 38°55' E 001°26'0 0.0
2017-Oct-23 23:00N 38°55' E 001°26'0 0.0
2017-Oct-23 22:30N 38°55' E 001°26'0 0.0
2017-Oct-23 21:59N 38°55' E 001°26'0 0.0
2017-Oct-23 21:30N 38°55' E 001°26'0 0.0
2017-Oct-23 21:00N 38°55' E 001°26'0 0.0
2017-Oct-23 20:29N 38°55' E 001°26'0 0.0
2017-Oct-23 20:00N 38°55' E 001°26'0 0.0
2017-Oct-23 19:29N 38°55' E 001°26'0 0.0
2017-Oct-23 18:59N 38°55' E 001°26'1 1.2
2017-Oct-23 18:30N 38°54' E 001°27'5 4.8
2017-Oct-23 17:23N 38°49' E 001°25'613.9
2017-Oct-23 16:58N 38°55' E 001°26'1 1.6
2017-Oct-23 16:30N 38°54' E 001°27'4 2.4
2017-Oct-23 14:48N 38°50' E 001°25'414.9
2017-Oct-23 14:30N 38°55' E 001°26'0 0.4
2017-Oct-23 13:57N 38°55' E 001°26'0 0.0
2017-Oct-23 13:29N 38°55' E 001°26'0 0.0
2017-Oct-23 13:00N 38°55' E 001°26'5 7.5
2017-Oct-23 12:22N 38°50' E 001°25'0 0.3
2017-Oct-23 10:49N 38°51' E 001°25'412.8
2017-Oct-23 10:29N 38°55' E 001°26'0 0.0
2017-Oct-23 10:00N 38°55' E 001°26'3 5.3
2017-Oct-23 09:30N 38°52' E 001°26'3 2.7
2017-Oct-23 08:23N 38°49' E 001°25'614.0
2017-Oct-23 07:59N 38°55' E 001°26'0 0.4
2017-Oct-23 07:28N 38°55' E 001°26'0 0.0
2017-Oct-23 06:59N 38°55' E 001°26'1 1.8
2017-Oct-23 06:30N 38°54' E 001°27'5 4.7
2017-Oct-23 05:23N 38°49' E 001°25'615.0
2017-Oct-23 04:59N 38°55' E 001°26'0 0.0
2017-Oct-23 04:29N 38°55' E 001°26'0 0.0
2017-Oct-23 04:00N 38°55' E 001°26'0 0.0
2017-Oct-23 03:28N 38°55' E 001°26'0 0.0
2017-Oct-23 03:00N 38°55' E 001°26'0 0.0
2017-Oct-23 02:30N 38°55' E 001°26'0 0.0
2017-Oct-23 01:59N 38°55' E 001°26'0 0.0
2017-Oct-23 01:30N 38°55' E 001°26'0 0.0
2017-Oct-23 00:58N 38°55' E 001°26'0 0.0
2017-Oct-23 00:30N 38°55' E 001°26'0 0.0
2017-Oct-22 23:59N 38°55' E 001°26'0 0.0
2017-Oct-22 23:28N 38°55' E 001°26'0 0.0
2017-Oct-22 22:59N 38°55' E 001°26'0 0.0
2017-Oct-22 22:30N 38°55' E 001°26'0 0.0
2017-Oct-22 21:59N 38°55' E 001°26'0 0.0
2017-Oct-22 21:30N 38°55' E 001°26'0 0.0
2017-Oct-22 20:59N 38°55' E 001°26'0 0.0
2017-Oct-22 20:29N 38°55' E 001°26'0 0.0
2017-Oct-22 20:00N 38°55' E 001°26'0 0.0
2017-Oct-22 19:29N 38°55' E 001°26'0 0.0
2017-Oct-22 18:59N 38°55' E 001°26'1 1.7
2017-Oct-22 18:30N 38°54' E 001°27'5 4.5
2017-Oct-22 17:22N 38°49' E 001°25'614.8
2017-Oct-22 17:00N 38°55' E 001°26'1 2.1
2017-Oct-22 16:30N 38°54' E 001°27'6 3.7
2017-Oct-22 14:56N 38°48' E 001°25'714.9
2017-Oct-22 14:29N 38°55' E 001°26'0 0.5
2017-Oct-22 13:57N 38°55' E 001°26'0 0.0
2017-Oct-22 13:29N 38°55' E 001°26'0 0.0
2017-Oct-22 12:59N 38°55' E 001°26'1 2.1
2017-Oct-22 12:30N 38°54' E 001°27'4 2.6
2017-Oct-22 10:53N 38°50' E 001°25'512.7
2017-Oct-22 10:29N 38°55' E 001°26'0 0.0
2017-Oct-22 10:00N 38°55' E 001°26'1 2.2
2017-Oct-22 09:29N 38°54' E 001°27'3 2.6
2017-Oct-22 08:17N 38°51' E 001°26'410.7
2017-Oct-22 07:55N 38°55' E 001°26'0 0.6
2017-Oct-22 07:29N 38°55' E 001°26'0 0.0
2017-Oct-22 06:57N 38°55' E 001°26'1 3.0
2017-Oct-22 06:30N 38°53' E 001°27'5 4.1
2017-Oct-22 05:22N 38°49' E 001°25'615.4
2017-Oct-22 05:00N 38°55' E 001°26'0 0.0
2017-Oct-22 04:28N 38°55' E 001°26'0 0.0
2017-Oct-22 04:00N 38°55' E 001°26'0 0.0
2017-Oct-22 03:29N 38°55' E 001°26'0 0.0
2017-Oct-22 02:59N 38°55' E 001°26'0 0.0
2017-Oct-22 02:30N 38°55' E 001°26'  

Dump ship's entire track history